PWSweather.com
Personal Weather Stations
Station Observations
728536
Kristiansand, FlekkeroyNO 4625

KristiansandFlekkeroyNO 4625

Lat: 58.0860587, Lon: 8.0151742

Elevation: 36

Station Type: Davis Vantage Pro2

http://www.paulen.no

Latest ConditionsUpdated 4:50:02 AM GMT+01:01 Monday, Feb 20, 2017
Currently Today's Max Today's Min Today's Average
Temperature 42.2°F5.7°C 42.2°F5.7°C 40.8°F4.9°C 41.3°F5.2°C
Dew Point 41.7°F5.4°C 41.7°F5.4°C 39.6°F4.2°C 40.5°F4.7°C
Winds 3.5 mph WSW5.6 kmh WSW 8.1 mph SW13.0 kmh SW - 5.9 mph 9.5 kmh
Wind Gusts 9.2 mph14.8 kmh 19.6 mph31.5 kmh - -
Humidity 98% 98% 95% 97%
Pressure 29.41 in995.9 mb 29.63 in1003.4 mb 29.41 in995.9 mb -
Precipitation - 0.02 in0.5 mm - -
Hour Temp Dew Point Humidity Winds Wind Gusts Pressure Precip Precip Rate Daily Precip Total
04:50 AM 42.2°F5.7°C 41.7°F5.4°C 98% 3.5 mph WSW5.6 kmh WSW 9.2 mph14.8 kmh 29.41 in995.9 mb - 0.00 in0.0 mm 0.02 in0.5 mm
04:40 AM 42.1°F5.6°C 41.6°F5.3°C 98% 4.6 mph SW7.4 kmh SW 9.2 mph14.8 kmh 29.42 in996.3 mb - 0.00 in0.0 mm 0.02 in0.5 mm
04:30 AM 42.1°F5.6°C 41.6°F5.3°C 98% 4.6 mph SSW7.4 kmh SSW 10.4 mph16.7 kmh 29.42 in996.3 mb - 0.00 in0.0 mm 0.02 in0.5 mm
04:20 AM 41.9°F5.5°C 41.4°F5.2°C 98% 4.6 mph SW7.4 kmh SW 11.5 mph18.5 kmh 29.43 in996.6 mb - 0.00 in0.0 mm 0.02 in0.5 mm
04:10 AM 41.7°F5.4°C 41.2°F5.1°C 98% 4.6 mph SW7.4 kmh SW 5.8 mph9.3 kmh 29.43 in996.6 mb - 0.00 in0.0 mm 0.02 in0.5 mm
04:00 AM 41.5°F5.3°C 41.0°F5.0°C 98% 8.1 mph SW13.0 kmh SW 17.3 mph27.8 kmh 29.44 in997.0 mb - 0.00 in0.0 mm 0.02 in0.5 mm
03:50 AM 41.2°F5.1°C 40.7°F4.8°C 98% 5.8 mph SW9.3 kmh SW 8.1 mph13.0 kmh 29.45 in997.3 mb - 0.00 in0.0 mm 0.02 in0.5 mm
03:40 AM 41.0°F5.0°C 40.5°F4.7°C 98% 8.1 mph SW13.0 kmh SW 13.8 mph22.2 kmh 29.46 in997.6 mb - 0.00 in0.0 mm 0.02 in0.5 mm
03:30 AM 40.9°F4.9°C 40.4°F4.7°C 98% 8.1 mph SW13.0 kmh SW 17.3 mph27.8 kmh 29.46 in997.6 mb - 0.01 in0.3 mm 0.02 in0.5 mm
03:20 AM 40.8°F4.9°C 40.0°F4.4°C 97% 8.1 mph SW13.0 kmh SW 17.3 mph27.8 kmh 29.48 in998.3 mb - 0.00 in0.0 mm 0.01 in0.3 mm
03:10 AM 40.8°F4.9°C 40.0°F4.4°C 97% 6.9 mph SW11.1 kmh SW 15.0 mph24.1 kmh 29.48 in998.3 mb - 0.00 in0.0 mm 0.01 in0.3 mm
03:00 AM 41.0°F5.0°C 40.2°F4.6°C 97% 6.9 mph SW11.1 kmh SW 17.3 mph27.8 kmh 29.50 in999.0 mb - 0.01 in0.3 mm 0.01 in0.3 mm
02:50 AM 41.3°F5.2°C 40.5°F4.7°C 97% 8.1 mph SW13.0 kmh SW 19.6 mph31.5 kmh 29.51 in999.3 mb - 0.00 in0.0 mm 0.00 in0.0 mm
02:40 AM 41.2°F5.1°C 40.4°F4.7°C 97% 8.1 mph SSW13.0 kmh SSW 15.0 mph24.1 kmh 29.52 in999.7 mb - 0.00 in0.0 mm 0.00 in0.0 mm
02:30 AM 40.9°F4.9°C 40.1°F4.5°C 97% 5.8 mph SW9.3 kmh SW 17.3 mph27.8 kmh 29.53 in1000.0 mb - 0.00 in0.0 mm 0.00 in0.0 mm
02:20 AM 40.8°F4.9°C 39.7°F4.3°C 96% 4.6 mph NNW7.4 kmh NNW 8.1 mph13.0 kmh 29.53 in1000.0 mb - 0.00 in0.0 mm 0.00 in0.0 mm
02:10 AM 40.8°F4.9°C 39.7°F4.3°C 96% 5.8 mph SW9.3 kmh SW 13.8 mph22.2 kmh 29.54 in1000.3 mb - 0.00 in0.0 mm 0.00 in0.0 mm
02:00 AM 40.9°F4.9°C 39.8°F4.3°C 96% 8.1 mph SW13.0 kmh SW 11.5 mph18.5 kmh 29.54 in1000.3 mb - 0.00 in0.0 mm 0.00 in0.0 mm
01:50 AM 40.9°F4.9°C 39.6°F4.2°C 95% 6.9 mph SW11.1 kmh SW 16.1 mph25.9 kmh 29.56 in1001.0 mb - 0.00 in0.0 mm 0.00 in0.0 mm
01:40 AM 41.1°F5.1°C 39.8°F4.3°C 95% 4.6 mph NNE7.4 kmh NNE 16.1 mph25.9 kmh 29.57 in1001.4 mb - 0.00 in0.0 mm 0.00 in0.0 mm
01:00 AM 41.6°F5.3°C 40.3°F4.6°C 95% 3.5 mph N5.6 kmh N 9.2 mph14.8 kmh 29.61 in1002.7 mb - 0.00 in0.0 mm 0.00 in0.0 mm
12:50 AM 41.7°F5.4°C 40.4°F4.7°C 95% 3.5 mph WNW5.6 kmh WNW 11.5 mph18.5 kmh 29.61 in1002.7 mb - 0.00 in0.0 mm 0.00 in0.0 mm
12:40 AM 41.8°F5.4°C 40.5°F4.7°C 95% 5.8 mph SSW9.3 kmh SSW 11.5 mph18.5 kmh 29.61 in1002.7 mb - 0.00 in0.0 mm 0.00 in0.0 mm
12:30 AM 41.7°F5.4°C 40.6°F4.8°C 96% 3.5 mph SE5.6 kmh SE 6.9 mph11.1 kmh 29.62 in1003.0 mb - 0.00 in0.0 mm 0.00 in0.0 mm
12:20 AM 41.5°F5.3°C 40.4°F4.7°C 96% 5.8 mph SW9.3 kmh SW 8.1 mph13.0 kmh 29.63 in1003.4 mb - 0.00 in0.0 mm 0.00 in0.0 mm
12:10 AM 41.4°F5.2°C 40.6°F4.8°C 97% 5.8 mph SW9.3 kmh SW 8.1 mph13.0 kmh 29.63 in1003.4 mb - 0.00 in0.0 mm 0.00 in0.0 mm
12:00 AM 41.3°F5.2°C 40.5°F4.7°C 97% 4.6 mph SW7.4 kmh SW 10.4 mph16.7 kmh 29.63 in1003.4 mb - 0.00 in0.0 mm 0.00 in0.0 mm